createdAt,value
2023-11-25T00:00:43.790Z,93411.97
2023-11-25T00:03:29.990Z,93396.44
2023-11-25T00:06:16.361Z,93399.06
2023-11-25T00:09:02.666Z,93414.41
2023-11-25T00:11:49.805Z,93401.19
2023-11-25T00:14:35.550Z,93418.88
2023-11-25T00:17:23.607Z,93415.72
2023-11-25T00:20:10.054Z,93413.75
2023-11-25T00:22:55.952Z,93429.53
2023-11-25T00:25:42.239Z,93419.88
2023-11-25T00:28:28.403Z,93425.25
2023-11-25T00:31:16.016Z,93429.88
2023-11-25T00:34:05.591Z,93426.66
2023-11-25T00:36:55.061Z,93436.06
2023-11-25T00:39:41.248Z,93431.44
2023-11-25T00:42:27.931Z,93429.94
2023-11-25T00:45:19.151Z,93419.56
2023-11-25T00:48:08.221Z,93412.25
2023-11-25T00:50:54.184Z,93407.63
2023-11-25T00:53:41.217Z,93403.38
2023-11-25T00:56:27.491Z,93398.28
2023-11-25T00:59:13.688Z,93387.75
2023-11-25T01:02:00.580Z,93402.66
2023-11-25T01:04:51.663Z,93397.53
2023-11-25T01:07:39.597Z,93404.34
2023-11-25T01:10:27.724Z,93405.78
2023-11-25T01:13:15.206Z,93401.78
2023-11-25T01:16:01.702Z,93419.78
2023-11-25T01:18:48.913Z,93408.16
2023-11-25T01:21:35.595Z,93399.19
2023-11-25T01:24:22.201Z,93402.88
2023-11-25T01:27:10.392Z,93415.47
2023-11-25T01:33:18.057Z,93415.16
2023-11-25T01:36:05.132Z,93409.59
2023-11-25T01:38:52.357Z,93421.78
2023-11-25T01:41:38.663Z,93427.31
2023-11-25T01:44:25.387Z,93422.19
2023-11-25T01:47:28.125Z,93420.09
2023-11-25T01:50:22.766Z,93419.22
2023-11-25T01:53:23.969Z,93416.88
2023-11-25T01:56:11.463Z,93419.47
2023-11-25T01:58:59.958Z,93410.00
2023-11-25T02:01:46.752Z,93416.88
2023-11-25T02:04:34.505Z,93424.50
2023-11-25T02:53:39.643Z,93430.06
2023-11-25T02:56:26.452Z,93420.78
2023-11-25T02:59:13.998Z,93424.94
2023-11-25T03:02:11.049Z,93435.88
2023-11-25T03:04:57.232Z,93428.41
2023-11-25T03:07:45.980Z,93427.75
2023-11-25T03:10:33.309Z,93420.56
2023-11-25T03:13:20.217Z,93409.19
2023-11-25T03:16:07.130Z,93398.75
2023-11-25T03:18:54.016Z,93387.47
2023-11-25T03:21:40.646Z,93374.81
2023-11-25T03:24:26.973Z,93375.25
2023-11-25T03:27:14.652Z,93372.78
2023-11-25T03:30:01.597Z,93387.00
2023-11-25T03:32:49.500Z,93389.38
2023-11-25T03:35:36.727Z,93394.63
2023-11-25T03:38:23.761Z,93402.09
2023-11-25T03:41:10.443Z,93415.00
2023-11-25T03:43:56.328Z,93413.97
2023-11-25T03:46:43.626Z,93415.75
2023-11-25T03:49:30.410Z,93408.38
2023-11-25T03:52:16.708Z,93412.16
2023-11-25T03:55:04.183Z,93414.41
2023-11-25T03:57:50.139Z,93424.94
2023-11-25T04:00:38.172Z,93416.41
2023-11-25T04:03:24.280Z,93412.63
2023-11-25T04:06:10.345Z,93420.00
2023-11-25T04:08:57.050Z,93419.34
2023-11-25T04:11:46.287Z,93411.41
2023-11-25T04:14:32.191Z,93416.91
2023-11-25T04:17:18.758Z,93409.28
2023-11-25T04:20:14.790Z,93400.53
2023-11-25T04:23:07.693Z,93413.31
2023-11-25T04:25:56.375Z,93417.56
2023-11-25T04:28:45.403Z,93422.03
2023-11-25T04:31:35.188Z,93419.13
2023-11-25T04:34:21.192Z,93426.06
2023-11-25T04:37:07.230Z,93433.03
2023-11-25T04:39:53.186Z,93436.81
2023-11-25T04:42:42.865Z,93435.38
2023-11-25T04:45:31.781Z,93421.63
2023-11-25T04:48:17.926Z,93449.34
2023-11-25T04:51:04.597Z,93431.00
2023-11-25T04:53:50.385Z,93434.78
2023-11-25T04:56:41.655Z,93437.16
2023-11-25T04:59:27.431Z,93436.81
2023-11-25T05:02:15.113Z,93445.34
2023-11-25T05:05:00.980Z,93454.97
2023-11-25T05:07:46.988Z,93466.47
2023-11-25T05:10:33.510Z,93463.44
2023-11-25T05:13:19.531Z,93465.00
2023-11-25T05:16:06.471Z,93461.22
2023-11-25T05:18:52.234Z,93450.13
2023-11-25T05:21:37.933Z,93446.66
2023-11-25T05:24:24.835Z,93437.47
2023-11-25T05:27:10.664Z,93453.59
2023-11-25T05:29:58.970Z,93463.44
2023-11-25T05:32:45.195Z,93467.50
2023-11-25T05:35:33.277Z,93458.19
2023-11-25T05:38:20.556Z,93463.34
2023-11-25T05:41:08.167Z,93446.44
2023-11-25T05:43:53.927Z,93436.09
2023-11-25T05:46:39.986Z,93442.25
2023-11-25T05:49:25.849Z,93448.44
2023-11-25T05:52:12.107Z,93443.03
2023-11-25T05:54:58.047Z,93439.25
2023-11-25T05:57:45.840Z,93431.44
2023-11-25T06:00:31.989Z,93433.00
2023-11-25T06:03:17.894Z,93445.06
2023-11-25T06:06:08.650Z,93440.47
2023-11-25T06:08:54.775Z,93452.22
2023-11-25T06:11:45.769Z,93483.16
2023-11-25T06:14:34.408Z,93490.88
2023-11-25T06:17:22.993Z,93491.66
2023-11-25T06:20:09.499Z,93489.41
2023-11-25T06:22:56.648Z,93476.66
2023-11-25T06:25:44.168Z,93486.72
2023-11-25T06:28:31.261Z,93476.66
2023-11-25T06:31:18.046Z,93455.94
2023-11-25T06:34:05.640Z,93449.53
2023-11-25T06:36:53.284Z,93445.72
2023-11-25T06:39:39.403Z,93438.09
2023-11-25T06:42:32.641Z,93427.34
2023-11-25T06:45:22.755Z,93442.81
2023-11-25T06:48:09.734Z,93445.94
2023-11-25T06:50:55.698Z,93452.44
2023-11-25T06:53:41.360Z,93457.81
2023-11-25T06:56:28.132Z,93465.09
2023-11-25T06:59:13.970Z,93456.59
2023-11-25T07:01:59.910Z,93461.19
2023-11-25T07:04:46.020Z,93465.00
2023-11-25T07:07:32.235Z,93456.47
2023-11-25T07:10:18.163Z,93454.91
2023-11-25T07:13:06.426Z,93462.53
2023-11-25T07:15:52.236Z,93462.31
2023-11-25T07:18:44.176Z,93487.88
2023-11-25T07:21:30.332Z,93496.34
2023-11-25T07:24:16.294Z,93481.78
2023-11-25T07:27:07.940Z,93480.22
2023-11-25T07:29:55.899Z,93466.69
2023-11-25T07:32:41.737Z,93460.50
2023-11-25T07:35:28.634Z,93461.38
2023-11-25T07:38:14.498Z,93458.47
2023-11-25T07:41:01.708Z,93453.09
2023-11-25T07:43:50.523Z,93427.06
2023-11-25T07:46:37.561Z,93440.97
2023-11-25T07:49:24.438Z,93424.81
2023-11-25T07:52:10.443Z,93419.44
2023-11-25T07:54:58.288Z,93417.53
2023-11-25T07:57:44.006Z,93421.00
2023-11-25T08:00:30.997Z,93434.47
2023-11-25T08:03:18.305Z,93424.81
2023-11-25T08:06:07.917Z,93427.97
2023-11-25T08:08:56.201Z,93426.84
2023-11-25T08:11:41.973Z,93419.44
2023-11-25T08:14:28.170Z,93428.84
2023-11-25T08:17:14.140Z,93425.81
2023-11-25T08:20:01.017Z,93415.94
2023-11-25T08:22:47.190Z,93409.44
2023-11-25T08:25:34.225Z,93411.44
2023-11-25T08:28:21.843Z,93404.16
2023-11-25T08:31:08.081Z,93394.53
2023-11-25T08:33:55.174Z,93399.22
2023-11-25T08:54:50.856Z,93398.81
2023-11-25T08:57:39.880Z,93407.41
2023-11-25T09:00:26.484Z,93399.00
2023-11-25T09:03:12.724Z,93394.34
2023-11-25T09:05:59.265Z,93395.88
2023-11-25T09:08:45.551Z,93373.06
2023-11-25T09:11:31.469Z,93368.13
2023-11-25T09:14:18.260Z,93367.00
2023-11-25T09:17:04.910Z,93361.94
2023-11-25T09:19:51.093Z,93361.84
2023-11-25T09:22:38.465Z,93370.47
2023-11-25T09:25:26.055Z,93378.09
2023-11-25T09:28:14.204Z,93369.91
2023-11-25T09:31:00.223Z,93383.38
2023-11-25T09:33:45.950Z,93376.34
2023-11-25T09:36:32.033Z,93383.63
2023-11-25T09:39:19.360Z,93389.34
2023-11-25T09:42:05.531Z,93391.47
2023-11-25T09:44:54.156Z,93366.81
2023-11-25T09:47:42.198Z,93352.97
2023-11-25T09:50:27.935Z,93362.16
2023-11-25T09:53:26.696Z,93370.88
2023-11-25T09:56:13.257Z,93364.72
2023-11-25T09:58:59.860Z,93359.69
2023-11-25T10:01:46.506Z,93348.06
2023-11-25T10:04:35.247Z,93356.56
2023-11-25T10:07:22.155Z,93342.69
2023-11-25T10:10:08.950Z,93341.22
2023-11-25T10:12:54.622Z,93346.69
2023-11-25T10:15:47.832Z,93345.00
2023-11-25T10:18:38.139Z,93341.31
2023-11-25T10:21:24.683Z,93342.88
2023-11-25T10:24:11.227Z,93335.94
2023-11-25T10:26:57.086Z,93332.22
2023-11-25T10:29:43.332Z,93313.75
2023-11-25T10:32:29.956Z,93316.88
2023-11-25T10:35:15.943Z,93314.63
2023-11-25T10:38:07.742Z,93306.03
2023-11-25T10:41:07.114Z,93296.22
2023-11-25T10:43:54.130Z,93307.25
2023-11-25T10:46:42.619Z,93304.13
2023-11-25T10:49:29.083Z,93296.56
2023-11-25T10:52:15.239Z,93318.25
2023-11-25T10:55:02.676Z,93317.56
2023-11-25T10:57:48.782Z,93319.47
2023-11-25T11:00:36.061Z,93305.84
2023-11-25T11:03:23.659Z,93324.41
2023-11-25T11:06:12.279Z,93311.28
2023-11-25T11:09:00.975Z,93307.47
2023-11-25T11:12:04.997Z,93285.78
2023-11-25T11:14:59.886Z,93307.47
2023-11-25T11:17:55.185Z,93295.28
2023-11-25T11:20:48.586Z,93287.88
2023-11-25T11:23:38.517Z,93290.47
2023-11-25T11:26:39.570Z,93279.53
2023-11-25T11:29:48.549Z,93273.72
2023-11-25T11:32:36.266Z,93272.84
2023-11-25T11:35:35.728Z,93266.84
2023-11-25T11:38:30.267Z,93256.00
2023-11-25T11:41:16.233Z,93252.25
2023-11-25T11:44:06.721Z,93248.59
2023-11-25T11:46:53.550Z,93258.13
2023-11-25T11:49:39.410Z,93236.16
2023-11-25T11:52:25.335Z,93248.13
2023-11-25T11:55:33.482Z,93256.63
2023-11-25T11:58:24.926Z,93245.00
2023-11-25T12:01:11.496Z,93253.97
2023-11-25T12:03:57.484Z,93267.63
2023-11-25T12:06:43.284Z,93245.28
2023-11-25T12:09:29.565Z,93237.44
2023-11-25T12:12:15.545Z,93237.66
2023-11-25T12:15:01.575Z,93218.13
2023-11-25T12:17:48.366Z,93224.59
2023-11-25T12:20:34.774Z,93206.16
2023-11-25T12:23:20.727Z,93192.19
2023-11-25T12:26:07.856Z,93224.63
2023-11-25T12:28:54.277Z,93216.44
2023-11-25T12:31:40.461Z,93212.09
2023-11-25T12:34:26.827Z,93209.66
2023-11-25T12:37:14.434Z,93204.16
2023-11-25T12:40:17.937Z,93209.09
2023-11-25T12:43:07.960Z,93226.31
2023-11-25T12:45:53.932Z,93239.19
2023-11-25T12:48:42.392Z,93242.84
2023-11-25T12:51:44.368Z,93236.63
2023-11-25T12:54:46.987Z,93225.22
2023-11-25T12:57:33.824Z,93238.63
2023-11-25T13:00:20.452Z,93223.19
2023-11-25T13:03:06.765Z,93235.50
2023-11-25T13:06:05.832Z,93225.88
2023-11-25T13:08:53.276Z,93227.66
2023-11-25T13:11:39.207Z,93220.06
2023-11-25T13:14:25.098Z,93216.28
2023-11-25T13:17:12.329Z,93207.88
2023-11-25T13:19:58.954Z,93209.34
2023-11-25T13:22:46.014Z,93198.16
2023-11-25T13:25:32.201Z,93194.16
2023-11-25T13:28:19.220Z,93190.34
2023-11-25T13:31:09.137Z,93181.84
2023-11-25T13:33:59.480Z,93164.41
2023-11-25T13:36:47.187Z,93169.69
2023-11-25T13:39:34.244Z,93191.47
2023-11-25T13:42:23.017Z,93185.13
2023-11-25T13:45:11.962Z,93182.63
2023-11-25T13:47:59.135Z,93187.78
2023-11-25T13:50:47.487Z,93185.19
2023-11-25T13:53:34.231Z,93183.97
2023-11-25T13:56:20.959Z,93196.56
2023-11-25T13:59:09.193Z,93207.81
2023-11-25T14:01:56.643Z,93208.03
2023-11-25T14:04:43.754Z,93216.97
2023-11-25T14:07:30.753Z,93219.28
2023-11-25T14:10:17.869Z,93221.72
2023-11-25T14:13:06.445Z,93227.41
2023-11-25T14:15:52.432Z,93247.97
2023-11-25T14:18:38.762Z,93232.41
2023-11-25T14:21:24.988Z,93252.94
2023-11-25T14:24:11.040Z,93253.59
2023-11-25T14:26:57.046Z,93274.09
2023-11-25T14:29:45.921Z,93257.13
2023-11-25T14:32:32.367Z,93266.78
2023-11-25T14:35:18.487Z,93282.06
2023-11-25T14:38:06.153Z,93279.59
2023-11-25T14:40:52.602Z,93278.00
2023-11-25T14:43:39.864Z,93275.53
2023-11-25T14:46:26.133Z,93280.88
2023-11-25T14:49:12.184Z,93289.81
2023-11-25T14:51:58.142Z,93281.53
2023-11-25T14:54:44.644Z,93286.22
2023-11-25T14:57:31.640Z,93265.22
2023-11-25T15:00:17.843Z,93258.75
2023-11-25T15:03:05.084Z,93241.97
2023-11-25T15:05:51.070Z,93243.22
2023-11-25T15:08:37.833Z,93241.69
2023-11-25T15:11:24.044Z,93250.03
2023-11-25T15:14:09.826Z,93229.94
2023-11-25T15:16:56.310Z,93259.41
2023-11-25T15:19:45.368Z,93235.00
2023-11-25T15:22:31.385Z,93257.94
2023-11-25T15:25:18.533Z,93253.41
2023-11-25T15:28:07.295Z,93239.78
2023-11-25T15:30:53.417Z,93227.72
2023-11-25T15:33:39.868Z,93232.44
2023-11-25T15:36:25.999Z,93252.78
2023-11-25T15:39:17.773Z,93232.50
2023-11-25T15:42:05.712Z,93229.97
2023-11-25T15:44:51.782Z,93228.88
2023-11-25T15:47:38.934Z,93230.91
2023-11-25T15:50:25.012Z,93243.19
2023-11-25T15:53:12.836Z,93249.63
2023-11-25T15:56:01.093Z,93251.19
2023-11-25T15:58:47.415Z,93264.56
2023-11-25T16:01:34.349Z,93245.84
2023-11-25T16:04:21.407Z,93259.22
2023-11-25T16:07:14.314Z,93253.72
2023-11-25T16:10:00.661Z,93259.53
2023-11-25T16:12:46.852Z,93270.53
2023-11-25T16:15:32.733Z,93271.63
2023-11-25T16:18:19.007Z,93264.72
2023-11-25T16:21:04.980Z,93269.16
2023-11-25T16:23:52.031Z,93268.19
2023-11-25T16:26:38.253Z,93274.00
2023-11-25T16:29:25.108Z,93267.06
2023-11-25T16:32:13.890Z,93269.13
2023-11-25T16:35:00.069Z,93284.84
2023-11-25T16:37:47.023Z,93288.28
2023-11-25T16:40:33.225Z,93272.75
2023-11-25T16:43:22.794Z,93275.25
2023-11-25T16:46:09.364Z,93276.84
2023-11-25T16:48:58.531Z,93293.00
2023-11-25T16:51:53.533Z,93290.03
2023-11-25T16:54:40.237Z,93293.81
2023-11-25T16:57:26.711Z,93280.75
2023-11-25T17:00:13.291Z,93292.38
2023-11-25T17:02:59.739Z,93278.56
2023-11-25T17:05:46.306Z,93294.59
2023-11-25T17:08:32.804Z,93297.56
2023-11-25T17:11:19.015Z,93281.53
2023-11-25T17:14:05.326Z,93279.19
2023-11-25T17:16:52.069Z,93296.78
2023-11-25T17:19:38.646Z,93292.09
2023-11-25T17:22:24.786Z,93299.81
2023-11-25T17:25:10.639Z,93283.31
2023-11-25T17:27:56.621Z,93311.25
2023-11-25T17:30:43.572Z,93299.34
2023-11-25T17:33:29.830Z,93295.22
2023-11-25T17:36:16.981Z,93303.56
2023-11-25T17:39:03.421Z,93318.03
2023-11-25T17:41:49.371Z,93305.63
2023-11-25T17:44:35.558Z,93297.59
2023-11-25T17:47:23.016Z,93295.56
2023-11-25T17:50:09.447Z,93304.84
2023-11-25T17:53:06.824Z,93283.97
2023-11-25T17:55:59.824Z,93316.03
2023-11-25T17:58:46.623Z,93333.63
2023-11-25T18:01:33.609Z,93328.28
2023-11-25T18:04:23.732Z,93346.50
2023-11-25T18:07:09.887Z,93349.97
2023-11-25T18:09:56.259Z,93341.16
2023-11-25T18:12:42.417Z,93366.31
2023-11-25T18:15:28.237Z,93351.53
2023-11-25T18:18:14.476Z,93350.91
2023-11-25T18:21:00.477Z,93360.97
2023-11-25T18:23:46.980Z,93352.63
2023-11-25T18:26:33.063Z,93351.22
2023-11-25T18:29:19.972Z,93336.94
2023-11-25T18:32:06.466Z,93349.00
2023-11-25T18:34:52.787Z,93352.13
2023-11-25T18:37:40.284Z,93352.94
2023-11-25T18:40:26.282Z,93338.97
2023-11-25T18:43:12.404Z,93346.78
2023-11-25T18:45:58.398Z,93339.88
2023-11-25T18:48:44.278Z,93343.66
2023-11-25T18:51:30.421Z,93345.38
2023-11-25T18:54:16.560Z,93336.91
2023-11-25T18:57:03.498Z,93336.44
2023-11-25T18:59:49.413Z,93339.41
2023-11-25T19:02:35.852Z,93328.06
2023-11-25T19:05:22.536Z,93330.28
2023-11-25T19:08:10.985Z,93326.84
2023-11-25T19:10:58.715Z,93335.47
2023-11-25T19:13:45.185Z,93326.84
2023-11-25T19:16:31.466Z,93346.31
2023-11-25T19:19:17.631Z,93339.59
2023-11-25T19:22:04.546Z,93344.94
2023-11-25T19:24:50.715Z,93342.88
2023-11-25T19:27:36.988Z,93352.47
2023-11-25T19:30:23.702Z,93364.41
2023-11-25T19:33:10.484Z,93359.88
2023-11-25T19:35:56.468Z,93368.66
2023-11-25T19:38:42.413Z,93356.25
2023-11-25T19:41:28.834Z,93353.44
2023-11-25T19:44:15.471Z,93373.84
2023-11-25T19:47:01.494Z,93372.75
2023-11-25T19:49:47.916Z,93379.97
2023-11-25T19:52:37.143Z,93376.38
2023-11-25T19:55:24.382Z,93380.94
2023-11-25T19:58:11.644Z,93396.66
2023-11-25T20:00:58.582Z,93401.50
2023-11-25T20:03:45.034Z,93397.41
2023-11-25T20:06:30.798Z,93406.06
2023-11-25T20:09:16.703Z,93404.19
2023-11-25T20:12:02.821Z,93415.19
2023-11-25T20:14:49.514Z,93415.19
2023-11-25T20:17:35.408Z,93417.69
2023-11-25T20:20:23.738Z,93434.81
2023-11-25T20:23:09.921Z,93424.78
2023-11-25T20:25:56.252Z,93417.88
2023-11-25T20:28:42.042Z,93419.88
2023-11-25T20:31:30.620Z,93400.88
2023-11-25T20:34:16.799Z,93431.19
2023-11-25T20:37:04.211Z,93426.19
2023-11-25T20:39:50.201Z,93420.38
2023-11-25T20:42:36.691Z,93418.00
2023-11-25T20:45:25.370Z,93405.75
2023-11-25T20:48:12.105Z,93421.47
2023-11-25T20:51:02.780Z,93405.75
2023-11-25T20:53:51.053Z,93389.56
2023-11-25T20:56:37.192Z,93412.03
2023-11-25T20:59:23.363Z,93407.63
2023-11-25T21:02:11.905Z,93392.41
2023-11-25T21:04:58.169Z,93377.31
2023-11-25T21:07:44.499Z,93393.19
2023-11-25T21:10:30.639Z,93387.34
2023-11-25T21:13:46.904Z,93398.81
2023-11-25T21:16:37.731Z,93395.84
2023-11-25T21:19:23.434Z,93385.31
2023-11-25T21:22:09.452Z,93396.47
2023-11-25T21:24:55.243Z,93399.13
2023-11-25T21:27:42.288Z,93402.44
2023-11-25T21:30:28.055Z,93391.75
2023-11-25T21:33:14.521Z,93414.41
2023-11-25T21:36:00.431Z,93393.66
2023-11-25T21:38:46.252Z,93402.44
2023-11-25T21:41:32.261Z,93400.56
2023-11-25T21:44:18.461Z,93419.44
2023-11-25T21:47:06.209Z,93414.72
2023-11-25T21:49:52.672Z,93417.88
2023-11-25T21:52:39.797Z,93396.94
2023-11-25T21:55:25.742Z,93410.47
2023-11-25T21:58:11.719Z,93397.59
2023-11-25T22:00:57.761Z,93398.53
2023-11-25T22:03:45.201Z,93396.94
2023-11-25T22:06:31.969Z,93389.91
2023-11-25T22:09:18.771Z,93408.25
2023-11-25T22:12:09.952Z,93399.78
2023-11-25T22:14:57.117Z,93399.63
2023-11-25T22:17:43.506Z,93396.19
2023-11-25T22:20:30.012Z,93405.59
2023-11-25T22:23:18.225Z,93412.81
2023-11-25T22:26:16.805Z,93418.50
2023-11-25T22:29:05.125Z,93419.13
2023-11-25T22:31:52.318Z,93405.91
2023-11-25T22:34:38.471Z,93404.50
2023-11-25T22:37:24.472Z,93411.25
2023-11-25T22:40:11.309Z,93413.00
2023-11-25T22:42:57.806Z,93401.97
2023-11-25T22:45:43.752Z,93419.91
2023-11-25T22:48:29.718Z,93411.91
2023-11-25T22:51:16.484Z,93407.66
2023-11-25T22:54:02.579Z,93426.34
2023-11-25T22:56:48.976Z,93423.19
2023-11-25T22:59:41.237Z,93404.63
2023-11-25T23:02:37.280Z,93417.38
2023-11-25T23:05:31.989Z,93409.19
2023-11-25T23:08:24.579Z,93414.84
2023-11-25T23:11:11.650Z,93410.75
2023-11-25T23:13:58.078Z,93419.88
2023-11-25T23:16:44.284Z,93422.38
2023-11-25T23:19:30.298Z,93415.91
2023-11-25T23:22:16.331Z,93437.44
2023-11-25T23:25:02.519Z,93422.84
2023-11-25T23:27:49.535Z,93437.28
2023-11-25T23:30:41.038Z,93447.78
2023-11-25T23:33:26.996Z,93446.53
2023-11-25T23:36:12.795Z,93463.00
2023-11-25T23:38:58.862Z,93449.50
2023-11-25T23:41:44.867Z,93464.06
2023-11-25T23:44:30.879Z,93473.94
2023-11-25T23:47:17.072Z,93472.84
2023-11-25T23:50:03.563Z,93467.03
2023-11-25T23:52:49.706Z,93464.72
2023-11-25T23:55:37.085Z,93462.94
2023-11-25T23:58:24.495Z,93468.16
